sensor_id;sensor_type;location;lat;lon;timestamp;pressure;altitude;pressure_sealevel;temperature;humidity
31121;BME280;17770;45.966;13.632;2022-08-19T00:01:43;99765.94;;;29.25;49.21
31121;BME280;17770;45.966;13.632;2022-08-19T00:04:10;99788.16;;;29.24;49.11
31121;BME280;17770;45.966;13.632;2022-08-19T00:06:37;99811.91;;;29.25;49.37
31121;BME280;17770;45.966;13.632;2022-08-19T00:09:04;99853.63;;;29.25;49.05
31121;BME280;17770;45.966;13.632;2022-08-19T00:11:30;99862.75;;;29.22;48.92
31121;BME280;17770;45.966;13.632;2022-08-19T00:13:56;99861.94;;;29.22;49.04
31121;BME280;17770;45.966;13.632;2022-08-19T00:16:23;99854.16;;;29.20;49.03
31121;BME280;17770;45.966;13.632;2022-08-19T00:18:49;99854.31;;;29.19;49.01
31121;BME280;17770;45.966;13.632;2022-08-19T00:21:15;99841.84;;;29.19;48.73
31121;BME280;17770;45.966;13.632;2022-08-19T00:23:42;99854.31;;;29.19;48.53
31121;BME280;17770;45.966;13.632;2022-08-19T00:26:08;99836.91;;;29.16;48.72
31121;BME280;17770;45.966;13.632;2022-08-19T00:28:34;99842.41;;;29.15;48.89
31121;BME280;17770;45.966;13.632;2022-08-19T00:31:02;99863.00;;;29.13;48.80
31121;BME280;17770;45.966;13.632;2022-08-19T00:33:29;99867.47;;;29.12;48.55
31121;BME280;17770;45.966;13.632;2022-08-19T00:35:58;99849.06;;;29.11;48.75
31121;BME280;17770;45.966;13.632;2022-08-19T00:38:24;99852.53;;;29.11;48.30
31121;BME280;17770;45.966;13.632;2022-08-19T00:40:50;99859.66;;;29.11;48.36
31121;BME280;17770;45.966;13.632;2022-08-19T00:43:18;99869.50;;;29.10;48.44
31121;BME280;17770;45.966;13.632;2022-08-19T00:45:45;99842.94;;;29.10;48.55
31121;BME280;17770;45.966;13.632;2022-08-19T00:48:10;99842.94;;;29.10;48.16
31121;BME280;17770;45.966;13.632;2022-08-19T00:50:37;99843.75;;;29.11;48.45
31121;BME280;17770;45.966;13.632;2022-08-19T00:53:06;99847.41;;;29.10;48.19
31121;BME280;17770;45.966;13.632;2022-08-19T00:59:00;99907.50;;;29.11;48.32
31121;BME280;17770;45.966;13.632;2022-08-19T01:01:27;99933.72;;;29.14;48.34
31121;BME280;17770;45.966;13.632;2022-08-19T01:03:53;99957.63;;;29.14;48.50
31121;BME280;17770;45.966;13.632;2022-08-19T01:06:19;99979.72;;;29.14;48.32
31121;BME280;17770;45.966;13.632;2022-08-19T01:08:45;99974.41;;;29.14;48.31
31121;BME280;17770;45.966;13.632;2022-08-19T01:11:11;99965.59;;;29.14;48.38
31121;BME280;17770;45.966;13.632;2022-08-19T01:13:37;99947.00;;;29.14;48.49
31121;BME280;17770;45.966;13.632;2022-08-19T01:16:04;99918.78;;;29.13;48.77
31121;BME280;17770;45.966;13.632;2022-08-19T01:18:31;99924.09;;;29.13;48.44
31121;BME280;17770;45.966;13.632;2022-08-19T01:20:58;99953.31;;;29.13;48.62
31121;BME280;17770;45.966;13.632;2022-08-19T01:23:27;99960.44;;;29.12;48.59
31121;BME280;17770;45.966;13.632;2022-08-19T01:26:12;99938.56;;;29.10;48.49
31121;BME280;17770;45.966;13.632;2022-08-19T01:28:39;99944.03;;;29.09;49.06
31121;BME280;17770;45.966;13.632;2022-08-19T01:31:06;99940.56;;;29.08;48.61
31121;BME280;17770;45.966;13.632;2022-08-19T01:33:33;99950.34;;;29.08;49.28
31121;BME280;17770;45.966;13.632;2022-08-19T01:36:06;99967.13;;;29.08;48.92
31121;BME280;17770;45.966;13.632;2022-08-19T01:38:34;99984.03;;;29.07;48.96
31121;BME280;17770;45.966;13.632;2022-08-19T01:41:00;100013.09;;;29.09;49.03
31121;BME280;17770;45.966;13.632;2022-08-19T01:43:26;100067.06;;;29.09;48.82
31121;BME280;17770;45.966;13.632;2022-08-19T01:45:52;100119.38;;;29.09;49.09
31121;BME280;17770;45.966;13.632;2022-08-19T01:48:18;100189.09;;;29.11;49.00
31121;BME280;17770;45.966;13.632;2022-08-19T01:50:44;100276.78;;;29.11;49.12
31121;BME280;17770;45.966;13.632;2022-08-19T01:53:11;100323.63;;;29.12;49.13
31121;BME280;17770;45.966;13.632;2022-08-19T01:55:38;100355.50;;;29.12;49.10
31121;BME280;17770;45.966;13.632;2022-08-19T01:58:04;100365.31;;;29.11;49.06
31121;BME280;17770;45.966;13.632;2022-08-19T02:00:31;100366.16;;;29.12;49.14
31121;BME280;17770;45.966;13.632;2022-08-19T02:02:57;100345.69;;;29.12;49.10
31121;BME280;17770;45.966;13.632;2022-08-19T02:05:23;100333.41;;;29.11;48.95
31121;BME280;17770;45.966;13.632;2022-08-19T02:07:49;100320.97;;;29.12;49.25
31121;BME280;17770;45.966;13.632;2022-08-19T02:10:18;100272.47;;;29.10;49.21
31121;BME280;17770;45.966;13.632;2022-08-19T02:12:45;100217.81;;;29.07;49.24
31121;BME280;17770;45.966;13.632;2022-08-19T02:15:11;100190.59;;;29.05;49.01
31121;BME280;17770;45.966;13.632;2022-08-19T02:17:37;100188.25;;;29.02;49.82
31121;BME280;17770;45.966;13.632;2022-08-19T02:20:03;100191.25;;;28.99;50.21
31121;BME280;17770;45.966;13.632;2022-08-19T02:22:30;100179.81;;;28.99;50.28
31121;BME280;17770;45.966;13.632;2022-08-19T02:24:56;100176.16;;;29.00;50.36
31121;BME280;17770;45.966;13.632;2022-08-19T02:27:22;100175.13;;;29.01;50.17
31121;BME280;17770;45.966;13.632;2022-08-19T02:29:48;100176.81;;;29.02;49.91
31121;BME280;17770;45.966;13.632;2022-08-19T02:32:15;100213.16;;;29.01;50.10
31121;BME280;17770;45.966;13.632;2022-08-19T02:34:40;100237.91;;;29.02;49.79
31121;BME280;17770;45.966;13.632;2022-08-19T02:37:06;100239.72;;;29.01;50.25
31121;BME280;17770;45.966;13.632;2022-08-19T02:39:52;100204.19;;;29.02;49.83
31121;BME280;17770;45.966;13.632;2022-08-19T02:42:18;100140.44;;;29.02;50.18
31121;BME280;17770;45.966;13.632;2022-08-19T02:44:44;100061.09;;;28.99;49.94
31121;BME280;17770;45.966;13.632;2022-08-19T02:47:10;99990.72;;;28.95;49.43
31121;BME280;17770;45.966;13.632;2022-08-19T02:49:35;99973.47;;;28.91;50.26
31121;BME280;17770;45.966;13.632;2022-08-19T02:52:02;100058.63;;;28.90;50.42
31121;BME280;17770;45.966;13.632;2022-08-19T02:54:28;100109.09;;;28.90;50.72
31121;BME280;17770;45.966;13.632;2022-08-19T02:56:54;100115.25;;;28.90;50.09
31121;BME280;17770;45.966;13.632;2022-08-19T02:59:20;100102.75;;;28.91;50.52
31121;BME280;17770;45.966;13.632;2022-08-19T03:01:46;100084.19;;;28.91;50.47
31121;BME280;17770;45.966;13.632;2022-08-19T03:04:13;100077.03;;;28.91;50.51
31121;BME280;17770;45.966;13.632;2022-08-19T03:06:40;100065.44;;;28.92;50.24
31121;BME280;17770;45.966;13.632;2022-08-19T03:09:06;100053.97;;;28.92;49.82
31121;BME280;17770;45.966;13.632;2022-08-19T03:11:32;100029.25;;;28.91;50.35
31121;BME280;17770;45.966;13.632;2022-08-19T03:14:00;100018.63;;;28.91;50.72
31121;BME280;17770;45.966;13.632;2022-08-19T03:16:26;100013.31;;;28.91;50.63
31121;BME280;17770;45.966;13.632;2022-08-19T03:18:53;100023.94;;;28.91;50.74
31121;BME280;17770;45.966;13.632;2022-08-19T03:21:20;100029.25;;;28.91;50.95
31121;BME280;17770;45.966;13.632;2022-08-19T03:23:46;100029.25;;;28.91;50.77
31121;BME280;17770;45.966;13.632;2022-08-19T03:26:12;100023.94;;;28.91;50.76
31121;BME280;17770;45.966;13.632;2022-08-19T03:28:40;100034.56;;;28.91;50.63
31121;BME280;17770;45.966;13.632;2022-08-19T03:31:08;100037.22;;;28.91;50.61
31121;BME280;17770;45.966;13.632;2022-08-19T03:33:35;100042.50;;;28.91;50.78
31121;BME280;17770;45.966;13.632;2022-08-19T03:38:31;100031.72;;;28.93;50.56
31121;BME280;17770;45.966;13.632;2022-08-19T03:40:57;100022.09;;;28.92;50.48
31121;BME280;17770;45.966;13.632;2022-08-19T03:43:23;100021.09;;;28.93;50.54
31121;BME280;17770;45.966;13.632;2022-08-19T03:45:59;100022.09;;;28.92;50.17
31121;BME280;17770;45.966;13.632;2022-08-19T03:48:24;100029.25;;;28.91;50.16
31121;BME280;17770;45.966;13.632;2022-08-19T03:50:51;100041.69;;;28.91;50.26
31121;BME280;17770;45.966;13.632;2022-08-19T03:53:16;100028.75;;;28.88;50.19
31121;BME280;17770;45.966;13.632;2022-08-19T03:55:42;100036.72;;;28.88;50.03
31121;BME280;17770;45.966;13.632;2022-08-19T03:58:08;100051.84;;;28.87;50.25
31121;BME280;17770;45.966;13.632;2022-08-19T04:00:36;100045.69;;;28.87;50.19
31121;BME280;17770;45.966;13.632;2022-08-19T04:03:02;100051.00;;;28.87;50.29
31121;BME280;17770;45.966;13.632;2022-08-19T04:05:28;100043.88;;;28.87;50.39
31121;BME280;17770;45.966;13.632;2022-08-19T04:07:54;100060.78;;;28.86;50.38
31121;BME280;17770;45.966;13.632;2022-08-19T04:10:22;100081.06;;;28.87;50.47
31121;BME280;17770;45.966;13.632;2022-08-19T04:12:49;100076.56;;;28.88;50.31
31121;BME280;17770;45.966;13.632;2022-08-19T04:15:15;100087.16;;;28.88;50.35
31121;BME280;17770;45.966;13.632;2022-08-19T04:17:41;100077.38;;;28.88;50.35
31121;BME280;17770;45.966;13.632;2022-08-19T04:20:07;100049.19;;;28.87;50.35
31121;BME280;17770;45.966;13.632;2022-08-19T04:22:32;100015.47;;;28.88;49.95
31121;BME280;17770;45.966;13.632;2022-08-19T04:24:58;100005.84;;;28.87;49.61
31121;BME280;17770;45.966;13.632;2022-08-19T04:27:24;100023.78;;;28.85;50.17
31121;BME280;17770;45.966;13.632;2022-08-19T04:29:50;100040.72;;;28.84;49.94
31121;BME280;17770;45.966;13.632;2022-08-19T04:32:16;100048.88;;;28.82;50.51
31121;BME280;17770;45.966;13.632;2022-08-19T04:34:41;100046.22;;;28.82;49.99
31121;BME280;17770;45.966;13.632;2022-08-19T04:37:08;100061.31;;;28.82;50.40
31121;BME280;17770;45.966;13.632;2022-08-19T04:39:38;100082.53;;;28.82;50.48
31121;BME280;17770;45.966;13.632;2022-08-19T04:42:23;100078.06;;;28.82;49.97
31121;BME280;17770;45.966;13.632;2022-08-19T04:45:06;100093.00;;;28.83;50.59
31121;BME280;17770;45.966;13.632;2022-08-19T04:47:33;100073.56;;;28.83;50.39
31121;BME280;17770;45.966;13.632;2022-08-19T04:49:58;100063.78;;;28.83;50.42
31121;BME280;17770;45.966;13.632;2022-08-19T04:52:24;100072.59;;;28.84;50.43
31121;BME280;17770;45.966;13.632;2022-08-19T04:54:50;100055.81;;;28.83;50.19
31121;BME280;17770;45.966;13.632;2022-08-19T04:57:16;100056.81;;;28.82;49.89
31121;BME280;17770;45.966;13.632;2022-08-19T04:59:42;100042.72;;;28.82;49.78
31121;BME280;17770;45.966;13.632;2022-08-19T05:02:09;99987.13;;;28.80;49.70
31121;BME280;17770;45.966;13.632;2022-08-19T05:04:35;99933.53;;;28.77;49.83
31121;BME280;17770;45.966;13.632;2022-08-19T05:07:04;99888.75;;;28.74;49.80
31121;BME280;17770;45.966;13.632;2022-08-19T05:09:30;99873.97;;;28.71;49.84
31121;BME280;17770;45.966;13.632;2022-08-19T05:11:56;99851.09;;;28.70;49.94
31121;BME280;17770;45.966;13.632;2022-08-19T05:14:22;99795.50;;;28.69;49.46
31121;BME280;17770;45.966;13.632;2022-08-19T05:16:48;99770.47;;;28.63;49.07
31121;BME280;17770;45.966;13.632;2022-08-19T05:19:14;99760.56;;;28.57;48.61
31121;BME280;17770;45.966;13.632;2022-08-19T05:21:59;99751.31;;;28.45;47.31
31121;BME280;17770;45.966;13.632;2022-08-19T05:24:43;99756.16;;;28.34;47.58
31121;BME280;17770;45.966;13.632;2022-08-19T05:27:09;99736.63;;;28.27;47.06
31121;BME280;17770;45.966;13.632;2022-08-19T05:29:35;99738.66;;;28.16;46.95
31121;BME280;17770;45.966;13.632;2022-08-19T05:32:03;99727.44;;;28.14;47.14
31121;BME280;17770;45.966;13.632;2022-08-19T05:34:30;99724.94;;;28.13;46.92
31121;BME280;17770;45.966;13.632;2022-08-19T05:36:57;99745.69;;;28.09;46.59
31121;BME280;17770;45.966;13.632;2022-08-19T05:39:25;99759.13;;;28.08;46.61
31121;BME280;17770;45.966;13.632;2022-08-19T05:41:53;99758.44;;;28.06;46.39
31121;BME280;17770;45.966;13.632;2022-08-19T05:44:21;99755.47;;;28.01;46.50
31121;BME280;17770;45.966;13.632;2022-08-19T05:46:47;99759.47;;;27.89;45.88
31121;BME280;17770;45.966;13.632;2022-08-19T05:49:14;99761.44;;;27.87;46.27
31121;BME280;17770;45.966;13.632;2022-08-19T05:51:41;99771.06;;;27.88;46.24
31121;BME280;17770;45.966;13.632;2022-08-19T05:54:08;99756.66;;;27.90;46.03
31121;BME280;17770;45.966;13.632;2022-08-19T05:56:34;99766.75;;;27.87;46.22
31121;BME280;17770;45.966;13.632;2022-08-19T05:59:07;99768.59;;;27.86;46.11
31121;BME280;17770;45.966;13.632;2022-08-19T06:01:35;99777.34;;;27.87;46.27
31121;BME280;17770;45.966;13.632;2022-08-19T06:04:02;99756.97;;;27.87;46.42
31121;BME280;17770;45.966;13.632;2022-08-19T06:06:28;99777.34;;;27.87;46.33
31121;BME280;17770;45.966;13.632;2022-08-19T06:08:54;99782.66;;;27.87;46.31
31121;BME280;17770;45.966;13.632;2022-08-19T06:13:46;99791.63;;;27.86;45.99
31121;BME280;17770;45.966;13.632;2022-08-19T06:16:15;99803.88;;;27.87;46.07
31121;BME280;17770;45.966;13.632;2022-08-19T06:18:48;99797.09;;;27.84;46.27
31121;BME280;17770;45.966;13.632;2022-08-19T06:21:15;99787.63;;;27.82;46.20
31121;BME280;17770;45.966;13.632;2022-08-19T06:23:41;99766.59;;;27.80;46.24
31121;BME280;17770;45.966;13.632;2022-08-19T06:26:11;99750.19;;;27.77;46.11
31121;BME280;17770;45.966;13.632;2022-08-19T06:28:37;99745.06;;;27.75;45.71
31121;BME280;17770;45.966;13.632;2022-08-19T06:31:12;99732.66;;;27.76;45.78
31121;BME280;17770;45.966;13.632;2022-08-19T06:33:39;99718.41;;;27.77;46.17
31121;BME280;17770;45.966;13.632;2022-08-19T06:36:05;99712.91;;;27.78;46.18
31121;BME280;17770;45.966;13.632;2022-08-19T06:38:31;99717.25;;;27.79;45.67
31121;BME280;17770;45.966;13.632;2022-08-19T06:41:04;99736.63;;;27.80;46.99
31121;BME280;17770;45.966;13.632;2022-08-19T06:43:30;99734.31;;;27.85;47.07
31121;BME280;17770;45.966;13.632;2022-08-19T06:45:56;99719.03;;;27.87;46.68
31121;BME280;17770;45.966;13.632;2022-08-19T06:48:22;99713.72;;;27.87;47.01
31121;BME280;17770;45.966;13.632;2022-08-19T06:50:48;99718.72;;;27.90;46.89
31121;BME280;17770;45.966;13.632;2022-08-19T06:53:17;99718.56;;;27.91;46.62
31121;BME280;17770;45.966;13.632;2022-08-19T06:55:45;99724.69;;;27.92;46.62
31121;BME280;17770;45.966;13.632;2022-08-19T06:58:10;99701.66;;;27.92;46.84
31121;BME280;17770;45.966;13.632;2022-08-19T07:00:36;99713.09;;;27.93;46.89
31121;BME280;17770;45.966;13.632;2022-08-19T07:03:02;99734.94;;;27.95;47.08
31121;BME280;17770;45.966;13.632;2022-08-19T07:05:28;99728.66;;;27.96;47.55
31121;BME280;17770;45.966;13.632;2022-08-19T07:07:54;99727.66;;;27.97;47.48
31121;BME280;17770;45.966;13.632;2022-08-19T07:10:21;99714.22;;;27.98;47.43
31121;BME280;17770;45.966;13.632;2022-08-19T07:12:47;99723.00;;;27.99;47.33
31121;BME280;17770;45.966;13.632;2022-08-19T07:15:15;99727.28;;;28.00;47.89
31121;BME280;17770;45.966;13.632;2022-08-19T07:17:41;99715.72;;;28.01;47.95
31121;BME280;17770;45.966;13.632;2022-08-19T07:20:09;99705.75;;;28.03;48.48
31121;BME280;17770;45.966;13.632;2022-08-19T07:22:36;99709.88;;;28.05;48.26
31121;BME280;17770;45.966;13.632;2022-08-19T07:25:02;99705.41;;;28.06;48.36
31121;BME280;17770;45.966;13.632;2022-08-19T07:27:29;99705.41;;;28.06;48.10
31121;BME280;17770;45.966;13.632;2022-08-19T07:29:55;99696.44;;;28.07;48.42
31121;BME280;17770;45.966;13.632;2022-08-19T07:32:21;99690.97;;;28.08;48.12
31121;BME280;17770;45.966;13.632;2022-08-19T07:34:46;99693.44;;;28.10;47.98
31121;BME280;17770;45.966;13.632;2022-08-19T07:37:12;99697.09;;;28.09;49.31
31121;BME280;17770;45.966;13.632;2022-08-19T07:39:38;99701.91;;;28.05;49.08
31121;BME280;17770;45.966;13.632;2022-08-19T07:42:06;99701.44;;;28.02;49.96
31121;BME280;17770;45.966;13.632;2022-08-19T07:44:32;99710.72;;;28.06;49.30
31121;BME280;17770;45.966;13.632;2022-08-19T07:46:59;99700.28;;;28.04;49.71
31121;BME280;17770;45.966;13.632;2022-08-19T07:49:25;99707.34;;;28.12;49.22
31121;BME280;17770;45.966;13.632;2022-08-19T07:51:53;99715.63;;;28.17;49.13
31121;BME280;17770;45.966;13.632;2022-08-19T07:54:20;99707.84;;;28.15;49.14
31121;BME280;17770;45.966;13.632;2022-08-19T07:56:47;99714.16;;;28.14;49.25
31121;BME280;17770;45.966;13.632;2022-08-19T07:59:14;99717.31;;;28.10;49.48
31121;BME280;17770;45.966;13.632;2022-08-19T08:01:40;99719.34;;;28.08;49.96
31121;BME280;17770;45.966;13.632;2022-08-19T08:04:06;99717.66;;;28.07;49.64
31121;BME280;17770;45.966;13.632;2022-08-19T08:06:51;99715.34;;;28.04;49.74
31121;BME280;17770;45.966;13.632;2022-08-19T08:09:37;99720.66;;;28.04;49.74
31121;BME280;17770;45.966;13.632;2022-08-19T08:12:05;99724.94;;;28.05;49.85
31121;BME280;17770;45.966;13.632;2022-08-19T08:14:33;99723.13;;;28.05;50.12
31121;BME280;17770;45.966;13.632;2022-08-19T08:17:01;99733.22;;;28.10;49.52
31121;BME280;17770;45.966;13.632;2022-08-19T08:19:27;99740.56;;;28.08;49.89
31121;BME280;17770;45.966;13.632;2022-08-19T08:21:54;99739.38;;;28.10;49.81
31121;BME280;17770;45.966;13.632;2022-08-19T08:24:21;99740.19;;;28.11;49.30
31121;BME280;17770;45.966;13.632;2022-08-19T08:26:47;99738.88;;;28.07;49.78
31121;BME280;17770;45.966;13.632;2022-08-19T08:29:13;99742.72;;;28.04;50.21
31121;BME280;17770;45.966;13.632;2022-08-19T08:31:41;99736.22;;;28.07;49.66
31121;BME280;17770;45.966;13.632;2022-08-19T08:34:07;99742.00;;;28.10;49.79
31121;BME280;17770;45.966;13.632;2022-08-19T08:36:41;99749.78;;;28.12;49.97
31121;BME280;17770;45.966;13.632;2022-08-19T08:39:08;99771.84;;;28.12;49.88
31121;BME280;17770;45.966;13.632;2022-08-19T08:41:38;99781.09;;;28.16;49.94
31121;BME280;17770;45.966;13.632;2022-08-19T08:44:06;99755.06;;;28.20;50.26
31121;BME280;17770;45.966;13.632;2022-08-19T08:46:47;99736.16;;;28.23;49.61
31121;BME280;17770;45.966;13.632;2022-08-19T08:52:26;99770.13;;;28.28;50.64
31121;BME280;17770;45.966;13.632;2022-08-19T08:54:51;99802.13;;;28.34;50.38
31121;BME280;17770;45.966;13.632;2022-08-19T08:57:26;99801.28;;;28.34;50.38
31121;BME280;17770;45.966;13.632;2022-08-19T08:59:53;99802.13;;;28.34;50.04
31121;BME280;17770;45.966;13.632;2022-08-19T09:02:21;99813.53;;;28.35;50.25
31121;BME280;17770;45.966;13.632;2022-08-19T09:04:47;99808.22;;;28.35;49.88
31121;BME280;17770;45.966;13.632;2022-08-19T09:09:45;99797.97;;;28.32;50.21
31121;BME280;17770;45.966;13.632;2022-08-19T09:17:07;99817.53;;;28.31;50.60
31121;BME280;17770;45.966;13.632;2022-08-19T09:19:34;99807.91;;;28.30;50.41
31121;BME280;17770;45.966;13.632;2022-08-19T09:22:01;99805.44;;;28.28;50.60
31121;BME280;17770;45.966;13.632;2022-08-19T09:24:27;99801.81;;;28.29;50.38
31121;BME280;17770;45.966;13.632;2022-08-19T09:26:53;99806.44;;;28.27;50.47
31121;BME280;17770;45.966;13.632;2022-08-19T09:29:18;99811.56;;;28.29;50.36
31121;BME280;17770;45.966;13.632;2022-08-19T09:31:46;99837.94;;;28.30;50.28
31121;BME280;17770;45.966;13.632;2022-08-19T09:34:12;99810.75;;;28.28;50.24
31121;BME280;17770;45.966;13.632;2022-08-19T09:36:37;99790.34;;;28.29;50.63
31121;BME280;17770;45.966;13.632;2022-08-19T09:39:04;99783.59;;;28.26;50.41
31121;BME280;17770;45.966;13.632;2022-08-19T09:41:31;99773.94;;;28.25;50.56
31121;BME280;17770;45.966;13.632;2022-08-19T09:43:59;99779.25;;;28.25;50.35
31121;BME280;17770;45.966;13.632;2022-08-19T09:46:25;99782.91;;;28.24;50.75
31121;BME280;17770;45.966;13.632;2022-08-19T09:48:52;99784.56;;;28.25;50.51
31121;BME280;17770;45.966;13.632;2022-08-19T09:51:19;99772.31;;;28.24;50.51
31121;BME280;17770;45.966;13.632;2022-08-19T09:53:46;99779.44;;;28.24;50.45
31121;BME280;17770;45.966;13.632;2022-08-19T09:56:15;99780.25;;;28.24;50.39
31121;BME280;17770;45.966;13.632;2022-08-19T09:58:41;99776.78;;;28.24;50.34
31121;BME280;17770;45.966;13.632;2022-08-19T10:01:07;99757.59;;;28.13;51.04
31121;BME280;17770;45.966;13.632;2022-08-19T10:03:34;99752.34;;;27.97;51.54
31121;BME280;17770;45.966;13.632;2022-08-19T10:06:02;99753.50;;;27.95;50.18
31121;BME280;17770;45.966;13.632;2022-08-19T10:08:29;99756.28;;;28.01;49.70
31121;BME280;17770;45.966;13.632;2022-08-19T10:10:56;99747.66;;;28.07;50.31
31121;BME280;17770;45.966;13.632;2022-08-19T10:13:23;99736.88;;;28.09;49.90
31121;BME280;17770;45.966;13.632;2022-08-19T10:15:52;99742.84;;;28.11;49.70
31121;BME280;17770;45.966;13.632;2022-08-19T10:18:19;99742.16;;;28.17;49.40
31121;BME280;17770;45.966;13.632;2022-08-19T10:20:46;99738.50;;;28.18;49.08
31121;BME280;17770;45.966;13.632;2022-08-19T10:23:12;99739.50;;;28.17;49.20
31121;BME280;17770;45.966;13.632;2022-08-19T10:25:38;99736.69;;;28.18;48.97
31121;BME280;17770;45.966;13.632;2022-08-19T10:28:04;99743.00;;;28.17;49.07
31121;BME280;17770;45.966;13.632;2022-08-19T10:30:31;99740.81;;;28.21;48.26
31121;BME280;17770;45.966;13.632;2022-08-19T10:32:57;99741.81;;;28.20;48.90
31121;BME280;17770;45.966;13.632;2022-08-19T10:35:23;99749.75;;;28.20;48.79
31121;BME280;17770;45.966;13.632;2022-08-19T10:37:52;99742.63;;;28.21;48.78
31121;BME280;17770;45.966;13.632;2022-08-19T10:40:17;99753.91;;;28.23;48.62
31121;BME280;17770;45.966;13.632;2022-08-19T10:42:43;99745.94;;;28.23;49.10
31121;BME280;17770;45.966;13.632;2022-08-19T10:45:10;99728.19;;;28.23;49.07
31121;BME280;17770;45.966;13.632;2022-08-19T10:47:36;99724.72;;;28.23;49.16
31121;BME280;17770;45.966;13.632;2022-08-19T10:50:02;99724.72;;;28.23;49.11
31121;BME280;17770;45.966;13.632;2022-08-19T10:52:47;99715.94;;;28.22;49.54
31121;BME280;17770;45.966;13.632;2022-08-19T10:55:13;99709.78;;;28.22;49.25
31121;BME280;17770;45.966;13.632;2022-08-19T10:57:57;99721.91;;;28.24;49.26
31121;BME280;17770;45.966;13.632;2022-08-19T11:00:24;99728.19;;;28.23;49.25
31121;BME280;17770;45.966;13.632;2022-08-19T11:02:50;99738.81;;;28.23;48.94
31121;BME280;17770;45.966;13.632;2022-08-19T11:05:16;99736.16;;;28.23;49.24
31121;BME280;17770;45.966;13.632;2022-08-19T11:07:43;99729.69;;;28.26;49.34
31121;BME280;17770;45.966;13.632;2022-08-19T11:10:11;99722.56;;;28.26;49.43
31121;BME280;17770;45.966;13.632;2022-08-19T11:12:37;99727.88;;;28.26;48.94
31121;BME280;17770;45.966;13.632;2022-08-19T11:15:07;99717.25;;;28.26;49.22
31121;BME280;17770;45.966;13.632;2022-08-19T11:17:34;99733.00;;;28.28;49.10
31121;BME280;17770;45.966;13.632;2022-08-19T11:20:02;99750.56;;;28.29;48.97
31121;BME280;17770;45.966;13.632;2022-08-19T11:22:30;99776.25;;;28.28;49.54
31121;BME280;17770;45.966;13.632;2022-08-19T11:24:56;99822.84;;;28.31;49.34
31121;BME280;17770;45.966;13.632;2022-08-19T11:27:22;99877.72;;;28.30;49.52
31121;BME280;17770;45.966;13.632;2022-08-19T11:29:48;99926.50;;;28.29;49.96
31121;BME280;17770;45.966;13.632;2022-08-19T11:32:13;99851.19;;;28.30;49.78
31121;BME280;17770;45.966;13.632;2022-08-19T11:34:41;99825.84;;;28.28;49.50
31121;BME280;17770;45.966;13.632;2022-08-19T11:37:07;99837.28;;;28.28;49.59
31121;BME280;17770;45.966;13.632;2022-08-19T11:39:34;99833.28;;;28.32;49.68
31121;BME280;17770;45.966;13.632;2022-08-19T11:42:02;99832.94;;;28.35;49.60
31121;BME280;17770;45.966;13.632;2022-08-19T11:44:48;99836.75;;;28.41;49.55
31121;BME280;17770;45.966;13.632;2022-08-19T11:47:15;99845.03;;;28.46;49.53
31121;BME280;17770;45.966;13.632;2022-08-19T11:49:40;99845.69;;;28.48;49.45
31121;BME280;17770;45.966;13.632;2022-08-19T11:52:08;99858.47;;;28.52;50.00
31121;BME280;17770;45.966;13.632;2022-08-19T11:54:34;99853.81;;;28.54;49.35
31121;BME280;17770;45.966;13.632;2022-08-19T11:57:02;99857.09;;;28.56;49.39
31121;BME280;17770;45.966;13.632;2022-08-19T11:59:28;99874.03;;;28.55;50.36
31121;BME280;17770;45.966;13.632;2022-08-19T12:01:54;99880.19;;;28.56;50.30
31121;BME280;17770;45.966;13.632;2022-08-19T12:04:21;99885.66;;;28.54;50.47
31121;BME280;17770;45.966;13.632;2022-08-19T12:06:47;99887.13;;;28.57;50.53
31121;BME280;17770;45.966;13.632;2022-08-19T12:09:13;99887.97;;;28.57;50.43
31121;BME280;17770;45.966;13.632;2022-08-19T12:11:41;99865.56;;;28.60;50.40
31121;BME280;17770;45.966;13.632;2022-08-19T12:14:08;99871.19;;;28.65;50.19
31121;BME280;17770;45.966;13.632;2022-08-19T12:16:34;99876.97;;;28.68;50.34
31121;BME280;17770;45.966;13.632;2022-08-19T12:19:00;99878.13;;;28.74;50.40
31121;BME280;17770;45.966;13.632;2022-08-19T12:21:30;99882.25;;;28.76;50.39
31121;BME280;17770;45.966;13.632;2022-08-19T12:23:56;99875.78;;;28.79;50.75
31121;BME280;17770;45.966;13.632;2022-08-19T12:26:23;99873.78;;;28.81;50.28
31121;BME280;17770;45.966;13.632;2022-08-19T12:28:49;99860.50;;;28.81;50.49
31121;BME280;17770;45.966;13.632;2022-08-19T12:31:15;99860.97;;;28.84;50.45
31121;BME280;17770;45.966;13.632;2022-08-19T12:33:42;99857.31;;;28.85;50.27
31121;BME280;17770;45.966;13.632;2022-08-19T12:36:08;99846.53;;;28.87;50.83
31121;BME280;17770;45.966;13.632;2022-08-19T12:38:35;99832.22;;;28.88;50.88
31121;BME280;17770;45.966;13.632;2022-08-19T12:41:01;99829.22;;;28.91;50.45
31121;BME280;17770;45.966;13.632;2022-08-19T12:43:32;99830.88;;;28.92;50.41
31121;BME280;17770;45.966;13.632;2022-08-19T12:45:58;99839.50;;;28.94;50.67
31121;BME280;17770;45.966;13.632;2022-08-19T12:48:24;99835.66;;;28.96;50.75
31121;BME280;17770;45.966;13.632;2022-08-19T12:50:50;99843.28;;;28.99;50.64
31121;BME280;17770;45.966;13.632;2022-08-19T12:53:15;99842.28;;;29.00;50.93
31121;BME280;17770;45.966;13.632;2022-08-19T12:55:41;99839.47;;;29.02;51.14
31121;BME280;17770;45.966;13.632;2022-08-19T12:58:09;99841.94;;;29.03;51.12
31121;BME280;17770;45.966;13.632;2022-08-19T13:00:35;99839.94;;;29.05;50.90
31121;BME280;17770;45.966;13.632;2022-08-19T13:03:00;99845.88;;;29.07;50.82
31121;BME280;17770;45.966;13.632;2022-08-19T13:05:28;99833.09;;;29.11;50.51
31121;BME280;17770;45.966;13.632;2022-08-19T13:07:54;99832.75;;;29.14;50.29